sensor_id;sensor_type;location;lat;lon;timestamp;pressure;altitude;pressure_sealevel;temperature;humidity
36600;BME280;35385;55.668;37.508;2023-07-13T00:00:23;98382.31;;;12.38;100.00
36600;BME280;35385;55.668;37.508;2023-07-13T00:01:23;98406.06;;;12.49;100.00
36600;BME280;35385;55.668;37.508;2023-07-13T00:02:24;98404.06;;;12.51;100.00
36600;BME280;35385;55.668;37.508;2023-07-13T00:03:26;98411.25;;;12.51;100.00
36600;BME280;35385;55.668;37.508;2023-07-13T00:04:27;98403.56;;;12.48;100.00
36600;BME280;35385;55.668;37.508;2023-07-13T00:05:27;98390.50;;;12.45;100.00
36600;BME280;35385;55.668;37.508;2023-07-13T00:06:28;98412.94;;;12.52;100.00
36600;BME280;35385;55.668;37.508;2023-07-13T00:07:33;98418.63;;;12.49;100.00
36600;BME280;35385;55.668;37.508;2023-07-13T00:08:34;98406.91;;;12.50;100.00
36600;BME280;35385;55.668;37.508;2023-07-13T00:09:35;98403.91;;;12.53;100.00
36600;BME280;35385;55.668;37.508;2023-07-13T00:10:40;98416.44;;;12.60;100.00
36600;BME280;35385;55.668;37.508;2023-07-13T00:11:41;98409.56;;;12.58;100.00
36600;BME280;35385;55.668;37.508;2023-07-13T00:12:42;98402.56;;;12.49;100.00
36600;BME280;35385;55.668;37.508;2023-07-13T00:13:44;98416.63;;;12.51;100.00
36600;BME280;35385;55.668;37.508;2023-07-13T00:14:44;98414.94;;;12.50;100.00
36600;BME280;35385;55.668;37.508;2023-07-13T00:15:45;98415.09;;;12.48;100.00
36600;BME280;35385;55.668;37.508;2023-07-13T00:16:46;98409.41;;;12.51;100.00
36600;BME280;35385;55.668;37.508;2023-07-13T00:17:46;98411.41;;;12.57;100.00
36600;BME280;35385;55.668;37.508;2023-07-13T00:18:47;98388.50;;;12.47;100.00
36600;BME280;35385;55.668;37.508;2023-07-13T00:19:48;98414.75;;;12.67;100.00
36600;BME280;35385;55.668;37.508;2023-07-13T00:20:48;98414.59;;;12.69;100.00
36600;BME280;35385;55.668;37.508;2023-07-13T00:21:49;98390.81;;;12.58;100.00
36600;BME280;35385;55.668;37.508;2023-07-13T00:22:50;98411.91;;;12.69;100.00
36600;BME280;35385;55.668;37.508;2023-07-13T00:23:51;98418.91;;;12.70;100.00
36600;BME280;35385;55.668;37.508;2023-07-13T00:24:53;98411.91;;;12.69;100.00
36600;BME280;35385;55.668;37.508;2023-07-13T00:25:56;98417.91;;;12.71;100.00
36600;BME280;35385;55.668;37.508;2023-07-13T00:26:57;98413.22;;;12.73;100.00
36600;BME280;35385;55.668;37.508;2023-07-13T00:27:58;98392.50;;;12.67;100.00
36600;BME280;35385;55.668;37.508;2023-07-13T00:28:58;98414.91;;;12.82;100.00
36600;BME280;35385;55.668;37.508;2023-07-13T00:29:59;98411.53;;;12.88;100.00
36600;BME280;35385;55.668;37.508;2023-07-13T00:31:00;98393.81;;;12.79;100.00
36600;BME280;35385;55.668;37.508;2023-07-13T00:32:03;98411.16;;;12.99;100.00
36600;BME280;35385;55.668;37.508;2023-07-13T00:33:03;98409.84;;;12.95;100.00
36600;BME280;35385;55.668;37.508;2023-07-13T00:34:04;98413.88;;;12.91;100.00
36600;BME280;35385;55.668;37.508;2023-07-13T00:35:05;98412.84;;;12.92;100.00
36600;BME280;35385;55.668;37.508;2023-07-13T00:36:05;98392.47;;;12.75;100.00
36600;BME280;35385;55.668;37.508;2023-07-13T00:37:07;98411.84;;;12.93;100.00
36600;BME280;35385;55.668;37.508;2023-07-13T00:38:07;98406.16;;;12.96;100.00
36600;BME280;35385;55.668;37.508;2023-07-13T00:39:08;98405.50;;;12.94;100.00
36600;BME280;35385;55.668;37.508;2023-07-13T00:40:13;98411.19;;;12.91;100.00
36600;BME280;35385;55.668;37.508;2023-07-13T00:41:14;98406.16;;;12.96;100.00
36600;BME280;35385;55.668;37.508;2023-07-13T00:42:15;98389.06;;;12.89;100.00
36600;BME280;35385;55.668;37.508;2023-07-13T00:43:18;98412.47;;;13.03;100.00
36600;BME280;35385;55.668;37.508;2023-07-13T00:44:20;98405.13;;;13.05;100.00
36600;BME280;35385;55.668;37.508;2023-07-13T00:46:32;98406.16;;;12.96;100.00
36600;BME280;35385;55.668;37.508;2023-07-13T00:47:33;98395.09;;;12.91;100.00
36600;BME280;35385;55.668;37.508;2023-07-13T00:48:36;98408.00;;;12.96;100.00
36600;BME280;35385;55.668;37.508;2023-07-13T00:49:38;98389.06;;;12.89;100.00
36600;BME280;35385;55.668;37.508;2023-07-13T00:50:39;98407.47;;;13.00;100.00
36600;BME280;35385;55.668;37.508;2023-07-13T00:51:44;98393.25;;;12.92;100.00
36600;BME280;35385;55.668;37.508;2023-07-13T00:52:48;98376.19;;;12.85;100.00
36600;BME280;35385;55.668;37.508;2023-07-13T00:53:51;98405.13;;;13.05;100.00
36600;BME280;35385;55.668;37.508;2023-07-13T00:54:53;98413.31;;;13.04;100.00
36600;BME280;35385;55.668;37.508;2023-07-13T00:55:56;98401.63;;;12.89;100.00
36600;BME280;35385;55.668;37.508;2023-07-13T00:57:00;98416.50;;;12.99;100.00
36600;BME280;35385;55.668;37.508;2023-07-13T00:58:02;98409.97;;;13.02;100.00
36600;BME280;35385;55.668;37.508;2023-07-13T00:59:06;98403.47;;;12.96;100.00
36600;BME280;35385;55.668;37.508;2023-07-13T01:00:09;98418.19;;;13.00;100.00
36600;BME280;35385;55.668;37.508;2023-07-13T01:01:10;98412.84;;;12.84;100.00
36600;BME280;35385;55.668;37.508;2023-07-13T01:02:13;98411.84;;;12.85;100.00
36600;BME280;35385;55.668;37.508;2023-07-13T01:03:15;98419.56;;;12.88;100.00
36600;BME280;35385;55.668;37.508;2023-07-13T01:04:16;98415.53;;;12.92;100.00
36600;BME280;35385;55.668;37.508;2023-07-13T01:05:20;98417.88;;;12.95;100.00
36600;BME280;35385;55.668;37.508;2023-07-13T01:06:21;98412.34;;;12.97;100.00
36600;BME280;35385;55.668;37.508;2023-07-13T01:07:21;98390.78;;;12.82;100.00
36600;BME280;35385;55.668;37.508;2023-07-13T01:08:22;98417.03;;;12.95;100.00
36600;BME280;35385;55.668;37.508;2023-07-13T01:09:23;98414.03;;;12.98;100.00
36600;BME280;35385;55.668;37.508;2023-07-13T01:10:25;98417.19;;;13.01;100.00
36600;BME280;35385;55.668;37.508;2023-07-13T01:11:26;98414.16;;;13.04;100.00
36600;BME280;35385;55.668;37.508;2023-07-13T01:12:27;98408.31;;;13.01;100.00
36600;BME280;35385;55.668;37.508;2023-07-13T01:13:27;98401.44;;;13.06;100.00
36600;BME280;35385;55.668;37.508;2023-07-13T01:14:28;98385.91;;;12.94;100.00
36600;BME280;35385;55.668;37.508;2023-07-13T01:15:39;98410.81;;;13.02;100.00
36600;BME280;35385;55.668;37.508;2023-07-13T01:16:41;98390.75;;;12.90;100.00
36600;BME280;35385;55.668;37.508;2023-07-13T01:17:43;98400.75;;;13.04;100.00
36600;BME280;35385;55.668;37.508;2023-07-13T01:18:44;98396.41;;;13.03;100.00
36600;BME280;35385;55.668;37.508;2023-07-13T01:19:45;98402.94;;;13.01;100.00
36600;BME280;35385;55.668;37.508;2023-07-13T01:20:59;98405.31;;;12.96;100.00
36600;BME280;35385;55.668;37.508;2023-07-13T01:22:00;98411.34;;;12.98;100.00
36600;BME280;35385;55.668;37.508;2023-07-13T01:23:02;98407.97;;;13.04;100.00
36600;BME280;35385;55.668;37.508;2023-07-13T01:24:03;98403.81;;;12.93;100.00
36600;BME280;35385;55.668;37.508;2023-07-13T01:25:04;98411.50;;;12.96;100.00
36600;BME280;35385;55.668;37.508;2023-07-13T01:26:04;98407.84;;;12.97;100.00
36600;BME280;35385;55.668;37.508;2023-07-13T01:27:07;98407.16;;;12.95;100.00
36600;BME280;35385;55.668;37.508;2023-07-13T01:28:08;98402.31;;;12.91;100.00
36600;BME280;35385;55.668;37.508;2023-07-13T01:29:09;98410.84;;;12.86;100.00
36600;BME280;35385;55.668;37.508;2023-07-13T01:30:10;98402.50;;;12.81;100.00
36600;BME280;35385;55.668;37.508;2023-07-13T01:31:12;98407.03;;;12.81;100.00
36600;BME280;35385;55.668;37.508;2023-07-13T01:32:15;98404.81;;;12.84;100.00
36600;BME280;35385;55.668;37.508;2023-07-13T01:33:17;98403.81;;;12.85;100.00
36600;BME280;35385;55.668;37.508;2023-07-13T01:34:18;98403.81;;;12.85;100.00
36600;BME280;35385;55.668;37.508;2023-07-13T01:35:18;98398.13;;;12.88;100.00
36600;BME280;35385;55.668;37.508;2023-07-13T01:36:19;98397.78;;;12.91;100.00
36600;BME280;35385;55.668;37.508;2023-07-13T01:37:22;98395.44;;;12.88;100.00
36600;BME280;35385;55.668;37.508;2023-07-13T01:38:23;98396.28;;;12.89;100.00
36600;BME280;35385;55.668;37.508;2023-07-13T01:39:24;98380.41;;;12.71;100.00
36600;BME280;35385;55.668;37.508;2023-07-13T01:40:24;98378.41;;;12.73;100.00
36600;BME280;35385;55.668;37.508;2023-07-13T01:41:25;98391.78;;;12.81;100.00
36600;BME280;35385;55.668;37.508;2023-07-13T01:42:25;98382.75;;;12.74;100.00
36600;BME280;35385;55.668;37.508;2023-07-13T01:43:26;98395.13;;;12.83;100.00
36600;BME280;35385;55.668;37.508;2023-07-13T01:44:27;98375.59;;;12.66;100.00
36600;BME280;35385;55.668;37.508;2023-07-13T01:45:27;98390.78;;;12.74;100.00
36600;BME280;35385;55.668;37.508;2023-07-13T01:46:28;98374.06;;;12.64;100.00
36600;BME280;35385;55.668;37.508;2023-07-13T01:47:28;98389.81;;;12.67;100.00
36600;BME280;35385;55.668;37.508;2023-07-13T01:48:31;98390.66;;;12.67;100.00
36600;BME280;35385;55.668;37.508;2023-07-13T01:49:31;98389.94;;;12.73;100.00
36600;BME280;35385;55.668;37.508;2023-07-13T01:50:33;98374.91;;;12.64;100.00
36600;BME280;35385;55.668;37.508;2023-07-13T01:51:33;98383.28;;;12.69;100.00
36600;BME280;35385;55.668;37.508;2023-07-13T01:52:34;98376.91;;;12.62;100.00
36600;BME280;35385;55.668;37.508;2023-07-13T01:53:34;98384.28;;;12.68;100.00
36600;BME280;35385;55.668;37.508;2023-07-13T01:54:35;98381.63;;;12.68;100.00
36600;BME280;35385;55.668;37.508;2023-07-13T01:55:36;98379.09;;;12.67;100.00
36600;BME280;35385;55.668;37.508;2023-07-13T01:56:37;98385.75;;;12.71;100.00
36600;BME280;35385;55.668;37.508;2023-07-13T01:57:38;98383.63;;;12.66;100.00
36600;BME280;35385;55.668;37.508;2023-07-13T01:58:38;98376.91;;;12.62;100.00
36600;BME280;35385;55.668;37.508;2023-07-13T01:59:39;98366.53;;;12.59;100.00
36600;BME280;35385;55.668;37.508;2023-07-13T02:00:39;98380.41;;;12.71;100.00
36600;BME280;35385;55.668;37.508;2023-07-13T02:01:40;98380.94;;;12.66;100.00
36600;BME280;35385;55.668;37.508;2023-07-13T02:02:40;98371.06;;;12.67;100.00
36600;BME280;35385;55.668;37.508;2023-07-13T02:03:41;98377.25;;;12.67;100.00
36600;BME280;35385;55.668;37.508;2023-07-13T02:04:41;98370.06;;;12.68;100.00
36600;BME280;35385;55.668;37.508;2023-07-13T02:05:42;98377.72;;;12.79;100.00
36600;BME280;35385;55.668;37.508;2023-07-13T02:06:42;98376.06;;;12.78;100.00
36600;BME280;35385;55.668;37.508;2023-07-13T02:07:43;98356.66;;;12.68;100.00
36600;BME280;35385;55.668;37.508;2023-07-13T02:08:44;98374.03;;;12.80;100.00
36600;BME280;35385;55.668;37.508;2023-07-13T02:09:44;98360.66;;;12.72;100.00
36600;BME280;35385;55.668;37.508;2023-07-13T02:10:45;98377.41;;;12.74;100.00
36600;BME280;35385;55.668;37.508;2023-07-13T02:11:45;98366.00;;;12.72;100.00
36600;BME280;35385;55.668;37.508;2023-07-13T02:12:47;98372.03;;;12.74;100.00
36600;BME280;35385;55.668;37.508;2023-07-13T02:13:48;98366.50;;;12.75;100.00
36600;BME280;35385;55.668;37.508;2023-07-13T02:14:49;98372.38;;;12.79;100.00
36600;BME280;35385;55.668;37.508;2023-07-13T02:15:52;98374.53;;;12.84;100.00
36600;BME280;35385;55.668;37.508;2023-07-13T02:16:53;98372.50;;;12.86;100.00
36600;BME280;35385;55.668;37.508;2023-07-13T02:17:53;98369.66;;;12.87;100.00
36600;BME280;35385;55.668;37.508;2023-07-13T02:18:54;98356.63;;;12.76;100.00
36600;BME280;35385;55.668;37.508;2023-07-13T02:19:55;98351.59;;;12.73;100.00
36600;BME280;35385;55.668;37.508;2023-07-13T02:20:55;98371.38;;;12.80;100.00
36600;BME280;35385;55.668;37.508;2023-07-13T02:21:56;98371.19;;;12.82;100.00
36600;BME280;35385;55.668;37.508;2023-07-13T02:22:56;98376.72;;;12.80;100.00
36600;BME280;35385;55.668;37.508;2023-07-13T02:23:57;98376.06;;;12.78;100.00
36600;BME280;35385;55.668;37.508;2023-07-13T02:24:58;98372.03;;;12.74;100.00
36600;BME280;35385;55.668;37.508;2023-07-13T02:25:59;98384.09;;;12.70;100.00
36600;BME280;35385;55.668;37.508;2023-07-13T02:27:00;98372.56;;;12.69;100.00
36600;BME280;35385;55.668;37.508;2023-07-13T02:28:01;98379.91;;;12.75;100.00
36600;BME280;35385;55.668;37.508;2023-07-13T02:29:02;98380.41;;;12.71;100.00
36600;BME280;35385;55.668;37.508;2023-07-13T02:30:02;98387.59;;;12.70;100.00
36600;BME280;35385;55.668;37.508;2023-07-13T02:31:09;98369.88;;;12.61;100.00
36600;BME280;35385;55.668;37.508;2023-07-13T02:32:10;98378.44;;;12.65;100.00
36600;BME280;35385;55.668;37.508;2023-07-13T02:33:10;98376.59;;;12.65;100.00
36600;BME280;35385;55.668;37.508;2023-07-13T02:34:11;98367.38;;;12.60;100.00
36600;BME280;35385;55.668;37.508;2023-07-13T02:35:11;98387.13;;;12.67;100.00
36600;BME280;35385;55.668;37.508;2023-07-13T02:36:12;98370.41;;;12.65;100.00
36600;BME280;35385;55.668;37.508;2023-07-13T02:37:14;98375.91;;;12.63;100.00
36600;BME280;35385;55.668;37.508;2023-07-13T02:38:14;98376.09;;;12.62;100.00
36600;BME280;35385;55.668;37.508;2023-07-13T02:39:15;98370.06;;;12.60;100.00
36600;BME280;35385;55.668;37.508;2023-07-13T02:40:15;98376.75;;;12.64;100.00
36600;BME280;35385;55.668;37.508;2023-07-13T02:41:16;98363.69;;;12.69;100.00
36600;BME280;35385;55.668;37.508;2023-07-13T02:42:16;98346.94;;;12.67;100.00
36600;BME280;35385;55.668;37.508;2023-07-13T02:43:17;98358.13;;;12.70;100.00
36600;BME280;35385;55.668;37.508;2023-07-13T02:44:17;98359.34;;;12.68;100.00
36600;BME280;35385;55.668;37.508;2023-07-13T02:45:18;98363.03;;;12.67;100.00
36600;BME280;35385;55.668;37.508;2023-07-13T02:46:18;98354.00;;;12.60;100.00
36600;BME280;35385;55.668;37.508;2023-07-13T02:47:19;98366.72;;;12.66;100.00
36600;BME280;35385;55.668;37.508;2023-07-13T02:48:20;98366.53;;;12.67;100.00
36600;BME280;35385;55.668;37.508;2023-07-13T02:49:21;98364.34;;;12.71;100.00
36600;BME280;35385;55.668;37.508;2023-07-13T02:50:21;98346.78;;;12.68;100.00
36600;BME280;35385;55.668;37.508;2023-07-13T02:51:22;98358.63;;;12.74;100.00
36600;BME280;35385;55.668;37.508;2023-07-13T02:52:22;98359.81;;;12.80;100.00
36600;BME280;35385;55.668;37.508;2023-07-13T02:53:23;98361.97;;;12.76;100.00
36600;BME280;35385;55.668;37.508;2023-07-13T02:54:23;98353.94;;;12.76;100.00
36600;BME280;35385;55.668;37.508;2023-07-13T02:55:24;98358.31;;;12.77;100.00
36600;BME280;35385;55.668;37.508;2023-07-13T02:56:26;98363.28;;;12.88;100.00
36600;BME280;35385;55.668;37.508;2023-07-13T02:57:27;98355.25;;;12.88;100.00
36600;BME280;35385;55.668;37.508;2023-07-13T02:58:28;98365.13;;;12.88;100.00
36600;BME280;35385;55.668;37.508;2023-07-13T02:59:28;98354.25;;;12.89;100.00
36600;BME280;35385;55.668;37.508;2023-07-13T03:00:29;98366.47;;;12.92;100.00
36600;BME280;35385;55.668;37.508;2023-07-13T03:01:30;98357.25;;;12.94;100.00
36600;BME280;35385;55.668;37.508;2023-07-13T03:02:33;98364.56;;;13.00;100.00
36600;BME280;35385;55.668;37.508;2023-07-13T03:03:34;98364.44;;;12.94;100.00
36600;BME280;35385;55.668;37.508;2023-07-13T03:04:36;98368.97;;;12.93;100.00
36600;BME280;35385;55.668;37.508;2023-07-13T03:05:37;98362.56;;;13.02;100.00
36600;BME280;35385;55.668;37.508;2023-07-13T03:06:38;98355.53;;;13.01;100.00
36600;BME280;35385;55.668;37.508;2023-07-13T03:07:39;98363.56;;;13.01;100.00
36600;BME280;35385;55.668;37.508;2023-07-13T03:08:40;98354.91;;;12.91;100.00
36600;BME280;35385;55.668;37.508;2023-07-13T03:09:40;98360.59;;;12.88;100.00
36600;BME280;35385;55.668;37.508;2023-07-13T03:10:41;98348.38;;;12.86;100.00
36600;BME280;35385;55.668;37.508;2023-07-13T03:11:41;98356.41;;;12.86;100.00
36600;BME280;35385;55.668;37.508;2023-07-13T03:12:42;98357.25;;;12.86;100.00
36600;BME280;35385;55.668;37.508;2023-07-13T03:13:43;98353.91;;;12.84;100.00
36600;BME280;35385;55.668;37.508;2023-07-13T03:14:43;98356.91;;;12.89;100.00
36600;BME280;35385;55.668;37.508;2023-07-13T03:15:48;98355.56;;;12.93;100.00
36600;BME280;35385;55.668;37.508;2023-07-13T03:16:49;98345.66;;;13.02;100.00
36600;BME280;35385;55.668;37.508;2023-07-13T03:17:49;98352.28;;;13.14;100.00
36600;BME280;35385;55.668;37.508;2023-07-13T03:18:50;98351.63;;;13.20;100.00
36600;BME280;35385;55.668;37.508;2023-07-13T03:19:51;98349.44;;;13.24;100.00
36600;BME280;35385;55.668;37.508;2023-07-13T03:20:52;98348.44;;;13.25;100.00
36600;BME280;35385;55.668;37.508;2023-07-13T03:21:52;98350.47;;;13.23;100.00
36600;BME280;35385;55.668;37.508;2023-07-13T03:22:53;98347.94;;;13.13;100.00
36600;BME280;35385;55.668;37.508;2023-07-13T03:23:54;98359.69;;;13.12;100.00
36600;BME280;35385;55.668;37.508;2023-07-13T03:24:55;98355.84;;;13.15;100.00
36600;BME280;35385;55.668;37.508;2023-07-13T03:26:07;98366.38;;;13.24;100.00
36600;BME280;35385;55.668;37.508;2023-07-13T03:27:08;98365.03;;;13.20;100.00
36600;BME280;35385;55.668;37.508;2023-07-13T03:28:08;98356.00;;;13.21;100.00
36600;BME280;35385;55.668;37.508;2023-07-13T03:29:09;98367.56;;;13.22;100.00
36600;BME280;35385;55.668;37.508;2023-07-13T03:30:10;98369.75;;;13.18;100.00
36600;BME280;35385;55.668;37.508;2023-07-13T03:31:14;98359.00;;;13.26;100.00
36600;BME280;35385;55.668;37.508;2023-07-13T03:32:15;98369.16;;;13.39;100.00
36600;BME280;35385;55.668;37.508;2023-07-13T03:33:15;98349.44;;;13.24;100.00
36600;BME280;35385;55.668;37.508;2023-07-13T03:34:16;98332.06;;;13.12;100.00
36600;BME280;35385;55.668;37.508;2023-07-13T03:35:16;98366.84;;;13.28;100.00
36600;BME280;35385;55.668;37.508;2023-07-13T03:36:22;98357.78;;;13.29;100.00
36600;BME280;35385;55.668;37.508;2023-07-13T03:37:23;98355.75;;;13.39;100.00
36600;BME280;35385;55.668;37.508;2023-07-13T03:38:24;98358.78;;;13.36;100.00
36600;BME280;35385;55.668;37.508;2023-07-13T03:39:24;98353.75;;;13.33;100.00
36600;BME280;35385;55.668;37.508;2023-07-13T03:40:26;98368.69;;;13.27;100.00
36600;BME280;35385;55.668;37.508;2023-07-13T03:41:26;98370.00;;;13.31;100.00
36600;BME280;35385;55.668;37.508;2023-07-13T03:42:27;98360.78;;;13.34;100.00
36600;BME280;35385;55.668;37.508;2023-07-13T03:43:27;98364.66;;;13.31;100.00
36600;BME280;35385;55.668;37.508;2023-07-13T03:44:29;98361.47;;;13.28;100.00
36600;BME280;35385;55.668;37.508;2023-07-13T03:45:29;98358.09;;;13.34;100.00
36600;BME280;35385;55.668;37.508;2023-07-13T03:46:30;98365.47;;;13.40;100.00
36600;BME280;35385;55.668;37.508;2023-07-13T03:47:30;98353.09;;;13.31;100.00
36600;BME280;35385;55.668;37.508;2023-07-13T03:48:31;98362.94;;;13.38;100.00
36600;BME280;35385;55.668;37.508;2023-07-13T03:49:31;98358.53;;;13.45;100.00
36600;BME280;35385;55.668;37.508;2023-07-13T03:50:32;98364.31;;;13.65;100.00
36600;BME280;35385;55.668;37.508;2023-07-13T03:51:33;98365.06;;;13.51;100.00
36600;BME280;35385;55.668;37.508;2023-07-13T03:52:33;98374.44;;;13.55;100.00
36600;BME280;35385;55.668;37.508;2023-07-13T03:53:38;98362.63;;;13.64;100.00
36600;BME280;35385;55.668;37.508;2023-07-13T03:54:39;98367.22;;;13.78;100.00
36600;BME280;35385;55.668;37.508;2023-07-13T03:55:40;98368.56;;;13.83;100.00
36600;BME280;35385;55.668;37.508;2023-07-13T03:56:40;98370.84;;;13.86;100.00
36600;BME280;35385;55.668;37.508;2023-07-13T03:57:41;98370.22;;;13.84;100.00
36600;BME280;35385;55.668;37.508;2023-07-13T03:58:43;98376.53;;;13.91;100.00
36600;BME280;35385;55.668;37.508;2023-07-13T03:59:44;98351.72;;;13.89;100.00
36600;BME280;35385;55.668;37.508;2023-07-13T04:00:44;98366.78;;;13.98;100.00
36600;BME280;35385;55.668;37.508;2023-07-13T04:01:45;98361.50;;;14.04;100.00
36600;BME280;35385;55.668;37.508;2023-07-13T04:02:45;98360.31;;;14.07;100.00
36600;BME280;35385;55.668;37.508;2023-07-13T04:03:48;98365.16;;;14.11;100.00
36600;BME280;35385;55.668;37.508;2023-07-13T04:04:49;98374.88;;;14.12;100.00
36600;BME280;35385;55.668;37.508;2023-07-13T04:05:49;98378.84;;;14.16;100.00
36600;BME280;35385;55.668;37.508;2023-07-13T04:06:50;98379.34;;;14.20;100.00
36600;BME280;35385;55.668;37.508;2023-07-13T04:07:53;98376.97;;;14.25;100.00
36600;BME280;35385;55.668;37.508;2023-07-13T04:08:57;98359.88;;;14.18;100.00
36600;BME280;35385;55.668;37.508;2023-07-13T04:09:57;98372.34;;;14.34;100.00
36600;BME280;35385;55.668;37.508;2023-07-13T04:10:59;98373.34;;;14.33;100.00
36600;BME280;35385;55.668;37.508;2023-07-13T04:11:59;98364.44;;;14.32;100.00
36600;BME280;35385;55.668;37.508;2023-07-13T04:13:00;98364.53;;;14.24;100.00
36600;BME280;35385;55.668;37.508;2023-07-13T04:14:00;98369.44;;;14.21;100.00
36600;BME280;35385;55.668;37.508;2023-07-13T04:15:01;98375.63;;;14.21;100.00
36600;BME280;35385;55.668;37.508;2023-07-13T04:16:02;98374.63;;;14.22;100.00
36600;BME280;35385;55.668;37.508;2023-07-13T04:17:02;98372.66;;;14.16;100.00
36600;BME280;35385;55.668;37.508;2023-07-13T04:18:03;98379.19;;;13.99;100.00
36600;BME280;35385;55.668;37.508;2023-07-13T04:19:03;98374.94;;;14.04;100.00
36600;BME280;35385;55.668;37.508;2023-07-13T04:20:05;98379.69;;;14.17;100.00
36600;BME280;35385;55.668;37.508;2023-07-13T04:21:06;98384.72;;;14.20;100.00
36600;BME280;35385;55.668;37.508;2023-07-13T04:22:07;98372.06;;;14.06;100.00
36600;BME280;35385;55.668;37.508;2023-07-13T04:23:08;98384.22;;;14.16;100.00
36600;BME280;35385;55.668;37.508;2023-07-13T04:24:08;98379.25;;;14.13;100.00
36600;BME280;35385;55.668;37.508;2023-07-13T04:25:09;98380.00;;;14.22;100.00
36600;BME280;35385;55.668;37.508;2023-07-13T04:26:09;98389.38;;;14.26;100.00
36600;BME280;35385;55.668;37.508;2023-07-13T04:27:10;98375.91;;;14.11;100.00
36600;BME280;35385;55.668;37.508;2023-07-13T04:28:11;98379.59;;;14.10;100.00
36600;BME280;35385;55.668;37.508;2023-07-13T04:29:11;98373.75;;;14.07;100.00
36600;BME280;35385;55.668;37.508;2023-07-13T04:30:12;98365.28;;;13.95;100.00
36600;BME280;35385;55.668;37.508;2023-07-13T04:31:13;98363.25;;;13.97;100.00
36600;BME280;35385;55.668;37.508;2023-07-13T04:32:13;98368.44;;;13.99;100.00
36600;BME280;35385;55.668;37.508;2023-07-13T04:33:14;98370.03;;;13.85;100.00
36600;BME280;35385;55.668;37.508;2023-07-13T04:34:17;98362.03;;;13.77;100.00
36600;BME280;35385;55.668;37.508;2023-07-13T04:35:20;98368.94;;;13.71;100.00
36600;BME280;35385;55.668;37.508;2023-07-13T04:36:21;98357.03;;;13.74;100.00
36600;BME280;35385;55.668;37.508;2023-07-13T04:37:22;98360.25;;;13.92;100.00
36600;BME280;35385;55.668;37.508;2023-07-13T04:38:25;98363.00;;;14.07;100.00
36600;BME280;35385;55.668;37.508;2023-07-13T04:39:27;98364.22;;;14.19;100.00
36600;BME280;35385;55.668;37.508;2023-07-13T04:40:28;98365.06;;;14.20;100.00
36600;BME280;35385;55.668;37.508;2023-07-13T04:41:29;98366.44;;;14.15;100.00
36600;BME280;35385;55.668;37.508;2023-07-13T04:42:30;98361.31;;;14.06;100.00
36600;BME280;35385;55.668;37.508;2023-07-13T04:43:31;98368.13;;;14.16;100.00
36600;BME280;35385;55.668;37.508;2023-07-13T04:44:32;98373.47;;;14.16;100.00
36600;BME280;35385;55.668;37.508;2023-07-13T04:45:34;98377.50;;;14.21;100.00
36600;BME280;35385;55.668;37.508;2023-07-13T04:46:35;98373.72;;;14.30;100.00
36600;BME280;35385;55.668;37.508;2023-07-13T04:47:36;98371.94;;;14.22;100.00
36600;BME280;35385;55.668;37.508;2023-07-13T04:48:36;98362.34;;;14.28;100.00
36600;BME280;35385;55.668;37.508;2023-07-13T04:49:37;98374.34;;;14.40;100.00
36600;BME280;35385;55.668;37.508;2023-07-13T04:50:37;98366.09;;;14.41;100.00
36600;BME280;35385;55.668;37.508;2023-07-13T04:51:38;98345.72;;;14.47;100.00
36600;BME280;35385;55.668;37.508;2023-07-13T04:52:38;98362.88;;;14.61;100.00
36600;BME280;35385;55.668;37.508;2023-07-13T04:53:39;98359.72;;;14.57;100.00
36600;BME280;35385;55.668;37.508;2023-07-13T04:54:39;98350.53;;;14.52;100.00
36600;BME280;35385;55.668;37.508;2023-07-13T04:55:41;98361.38;;;14.58;100.00
36600;BME280;35385;55.668;37.508;2023-07-13T04:56:41;98371.53;;;14.71;100.00
36600;BME280;35385;55.668;37.508;2023-07-13T04:57:42;98366.50;;;14.68;100.00
36600;BME280;35385;55.668;37.508;2023-07-13T04:58:42;98369.47;;;14.73;100.00
36600;BME280;35385;55.668;37.508;2023-07-13T04:59:43;98373.16;;;14.72;100.00
36600;BME280;35385;55.668;37.508;2023-07-13T05:00:44;98368.75;;;14.79;100.00
36600;BME280;35385;55.668;37.508;2023-07-13T05:01:44;98372.72;;;14.83;100.00
36600;BME280;35385;55.668;37.508;2023-07-13T05:02:45;98366.78;;;15.02;100.00
36600;BME280;35385;55.668;37.508;2023-07-13T05:03:46;98350.03;;;15.00;100.00
36600;BME280;35385;55.668;37.508;2023-07-13T05:04:48;98374.75;;;15.25;100.00
36600;BME280;35385;55.668;37.508;2023-07-13T05:06:03;98374.19;;;15.15;100.00
36600;BME280;35385;55.668;37.508;2023-07-13T05:07:05;98372.53;;;15.29;100.00
36600;BME280;35385;55.668;37.508;2023-07-13T05:08:06;98350.19;;;15.13;100.00
36600;BME280;35385;55.668;37.508;2023-07-13T05:09:07;98367.78;;;15.31;100.00
36600;BME280;35385;55.668;37.508;2023-07-13T05:10:08;98370.41;;;15.24;100.00
36600;BME280;35385;55.668;37.508;2023-07-13T05:11:09;98377.25;;;15.27;100.00
36600;BME280;35385;55.668;37.508;2023-07-13T05:12:10;98370.88;;;15.28;100.00
36600;BME280;35385;55.668;37.508;2023-07-13T05:13:11;98369.44;;;15.32;100.00
36600;BME280;35385;55.668;37.508;2023-07-13T05:14:11;98363.41;;;15.30;100.00
36600;BME280;35385;55.668;37.508;2023-07-13T05:15:12;98372.44;;;15.07;100.00
36600;BME280;35385;55.668;37.508;2023-07-13T05:16:13;98371.31;;;15.16;100.00
36600;BME280;35385;55.668;37.508;2023-07-13T05:17:13;98358.63;;;15.10;100.00